x

Rock Of Ages, Mi (roam4) Weather Station

10:00am - Mon 27th Feb 2017 All times are CST. -6 hours from GMT.

  • Wind
    3mph, 6mph gusts
  • Air Temp 26°f
  • Sea Pressure 1019.6mb
  • Rock Of Ages, Mi
  • Rock Of Ages, Mi

More Historic Weather Station data

Upgrade to MSW Pro to gain access to the past 30 days of data for over 8000 Wavebouys and Weather Stations around the globe.

Join Pro

Comparision Forecast

View Surf forecast
   
Mon 02/27 10:00am 3 6 mph 1019.6mb 26f
9:00am 6 7 mph 1019.1mb 25f
8:00am 2 3 mph 1019.3mb 21f
7:00am 6 7 mph 1018.8mb 20f
6:00am 6 8 mph 1018.9mb 19f
5:00am 7 9 mph 1018.5mb 19f
4:00am 13 15 mph 1018mb 20f
3:00am 16 20 mph 1017.7mb 22f
2:00am 11 13 mph 1017.6mb 21f
1:00am 8 10 mph 1016.9mb 19f
12:00am 15 16 mph 1016.5mb 19f
Sun 02/26 11:00pm 18 21 mph 1016mb 19f
10:00pm 22 24 mph 1015.7mb 19f
9:00pm 21 24 mph 1015.1mb 19f
8:00pm 17 20 mph 1014.1mb 18f
7:00pm 23 25 mph 1013.5mb 19f
6:00pm 25 28 mph 1012mb 19f
5:00pm 21 22 mph 1010.5mb 22f
4:00pm 24 29 mph 1009.2mb 24f
3:00pm 30 31 mph 1007.4mb 24f
2:00pm 17 21 mph 1006.7mb 26f
1:00pm 16 20 mph 1006.2mb 23f
12:00pm 9
mph
1006.2mb 23f
11:00am 10
mph
1006.3mb 22f
10:00am 10 11 mph 1005.9mb 23f
9:00am 7 8 mph 1006.2mb 25f
8:00am 14 15 mph 1006.1mb 24f
7:00am 3 5 mph 1006.2mb 25f
6:00am 1 2 mph 1006.2mb 25f
5:00am 7 9 mph 1006.7mb 26f
4:00am 10 11 mph 1006.7mb 26f
3:00am 17 20 mph 1006.9mb 26f
2:00am 20 22 mph 1007.3mb 27f
1:00am 18 21 mph 1007.9mb 27f
12:00am 8 10 mph 1008.3mb 26f
Sat 02/25 11:00pm 10 13 mph 1008.8mb 25f
10:00pm 17 18 mph 1009.1mb 26f
9:00pm 24 26 mph 1008.9mb 26f
8:00pm 23 25 mph 1008.9mb 25f
7:00pm 25 26 mph 1008.8mb 25f
6:00pm 23 25 mph 1008.6mb 25f
5:00pm 26 30 mph 1008mb 28f
4:00pm 25 29 mph 1007.5mb 28f
3:00pm 17 20 mph 1007.8mb 27f
2:00pm 20 23 mph 1007.7mb 25f
1:00pm 17 21 mph 1007.8mb 23f
12:00pm 15 17 mph 1008.3mb 21f
11:00am 31 33 mph 1007mb 20f
10:00am 30 34 mph 1007.4mb 20f
9:00am 36 40 mph 1007.6mb 16f
8:00am 37 41 mph 1007.5mb 17f
7:00am 32 39 mph 1007.2mb 15f
6:00am 33 37 mph 1006.9mb 14f
5:00am 30 33 mph 1006.8mb 14f
4:00am 30 32 mph 1007.3mb 14f
3:00am 31 34 mph 1007.7mb 14f
2:00am 29 31 mph 1008.7mb 15f
1:00am 24 28 mph 1009.7mb 15f
12:00am 23 25 mph 1010.8mb 15f
Fri 02/24 11:00pm 23 26 mph 1011.3mb 15f
10:00pm 24 29 mph 1012.1mb 15f
9:00pm 25 30 mph 1012.6mb 15f
8:00pm 26 28 mph 1012.8mb 17f
7:00pm 26 29 mph 1013.1mb 18f
6:00pm 22 24 mph 1014mb 18f
5:00pm 24 26 mph 1014.4mb 18f
4:00pm 23 25 mph 1014.7mb 18f
3:00pm 24 26 mph 1015.2mb 18f
2:00pm 21 24 mph 1015.9mb 16f
1:00pm 23 26 mph 1016.6mb 14f
12:00pm 24 29 mph 1017.5mb 14f
11:00am 25 28 mph 1017.6mb 13f
10:00am 24 28 mph 1018.5mb 12f
9:00am 24 28 mph 1019.4mb 12f
8:00am 28 31 mph 1018.9mb 12f
7:00am 31 34 mph 1019.5mb 12f
6:00am 28 31 mph 1019.5mb 12f
5:00am 28 31 mph 1019mb 13f
4:00am 23 25 mph 1019mb 16f
3:00am 25 30 mph 1019.4mb 17f
2:00am 26 29 mph 1019.2mb 20f
1:00am 22 25 mph 1019.5mb 21f
12:00am 22 24 mph 1019mb 22f
Thu 02/23 11:00pm 28 30 mph 1017mb 24f
10:00pm 23 24 mph 1017.9mb 27f
9:00pm 22 23 mph 1017.8mb 28f
8:00pm 22 25 mph 1016.8mb 30f
7:00pm 20 21 mph 1016.1mb 31f
6:00pm 11 14 mph 1016mb 32f